Time;durP1;ratioP1;P1;durP2;ratioP2;P2;SDS_P1;SDS_P2;PMS_P1;PMS_P2;Temp;Humidity;BMP_temperature;BMP_pressure;BME280_temperature;BME280_humidity;BME280_pressure;Samples;Min_cycle;Max_cycle;Signal;HPM_P1;HPM_P2
2022/06/14 06:11:20;;;;;;;7.23;2.23;;;;;;;;;;3642073;28;20314;-68
2022/06/14 06:14:07;;;;;;;6.17;1.70;;;;;;;;;;4974780;28;22289;-65
2022/06/14 06:19:44;;;;;;;5.40;1.73;;;;;;;;;;4860289;29;20323;-69
2022/06/14 06:22:26;;;;;;;10.20;2.40;;;;;;;;;;4857299;29;20235;-66
2022/06/14 06:24:55;;;;;;;5.33;2.00;;;;;;;;;;4950778;28;20292;-66
2022/06/14 06:27:23;;;;;;;5.27;2.27;;;;;;;;;;4980853;28;20281;-67
2022/06/14 06:29:52;;;;;;;8.10;2.20;;;;;;;;;;4984534;28;20761;-69
2022/06/14 06:32:19;;;;;;;9.00;2.20;;;;;;;;;;4973531;28;20286;-67
2022/06/14 06:34:46;;;;;;;9.77;2.73;;;;;;;;;;4960873;28;20225;-65
2022/06/14 06:37:13;;;;;;;8.23;2.33;;;;;;;;;;4952185;28;20229;-68
2022/06/14 06:40:06;;;;;;;6.77;1.77;;;;;;;;;;4961446;28;20293;-65
2022/06/14 06:42:33;;;;;;;7.53;1.90;;;;;;;;;;4952070;28;21089;-66
2022/06/14 06:45:29;;;;;;;4.73;2.07;;;;;;;;;;4958434;28;20219;-66
2022/06/14 06:47:56;;;;;;;7.37;1.90;;;;;;;;;;5000901;28;20270;-66
2022/06/14 06:50:41;;;;;;;4.67;1.83;;;;;;;;;;5002591;28;22550;-65
2022/06/14 06:53:11;;;;;;;5.67;1.70;;;;;;;;;;4983513;28;20220;-66
2022/06/14 06:55:45;;;;;;;6.67;1.90;;;;;;;;;;4960803;28;20225;-66
2022/06/14 06:58:24;;;;;;;7.93;1.87;;;;;;;;;;4942305;28;20240;-66
2022/06/14 07:01:08;;;;;;;8.73;1.97;;;;;;;;;;4952049;28;20279;-65
2022/06/14 07:03:45;;;;;;;7.13;1.70;;;;;;;;;;4961131;28;20593;-68
2022/06/14 07:06:19;;;;;;;4.37;1.30;;;;;;;;;;4942189;28;21075;-66
2022/06/14 07:08:55;;;;;;;5.63;1.60;;;;;;;;;;4933455;28;20228;-65
2022/06/14 07:11:33;;;;;;;10.57;1.60;;;;;;;;;;4930674;28;20244;-65
2022/06/14 07:14:08;;;;;;;5.53;1.13;;;;;;;;;;4947169;28;20228;-67
2022/06/14 07:17:05;;;;;;;5.10;1.43;;;;;;;;;;4951872;28;20277;-66
2022/06/14 07:19:43;;;;;;;5.70;1.37;;;;;;;;;;4951682;28;25952;-68
2022/06/14 07:22:28;;;;;;;7.53;1.57;;;;;;;;;;4947793;28;20283;-68
2022/06/14 07:24:56;;;;;;;3.93;1.53;;;;;;;;;;4958703;28;20960;-66
2022/06/14 07:27:46;;;;;;;6.93;1.63;;;;;;;;;;4947097;28;20240;-65
2022/06/14 07:30:15;;;;;;;4.27;1.23;;;;;;;;;;4958372;28;20228;-67
2022/06/14 07:32:46;;;;;;;9.17;1.60;;;;;;;;;;4952975;28;20668;-65
2022/06/14 07:35:14;;;;;;;4.57;1.40;;;;;;;;;;4933678;28;20244;-68
2022/06/14 07:37:45;;;;;;;5.13;1.30;;;;;;;;;;4952713;28;20237;-66
2022/06/14 07:40:34;;;;;;;6.10;2.13;;;;;;;;;;4948512;28;20303;-67
2022/06/14 07:43:11;;;;;;;8.30;1.73;;;;;;;;;;4950954;28;20975;-66
2022/06/14 07:45:39;;;;;;;4.23;1.43;;;;;;;;;;4956798;28;20231;-67
2022/06/14 07:48:22;;;;;;;6.13;1.40;;;;;;;;;;4950450;28;20238;-66
2022/06/14 07:50:57;;;;;;;6.13;1.50;;;;;;;;;;4936687;28;20933;-67
2022/06/14 07:53:33;;;;;;;5.73;1.30;;;;;;;;;;4953219;28;20356;-67
2022/06/14 07:56:03;;;;;;;7.70;1.77;;;;;;;;;;4938579;28;20228;-66
2022/06/14 07:58:30;;;;;;;6.60;1.57;;;;;;;;;;4938596;28;20233;-68
2022/06/14 08:01:07;;;;;;;5.27;1.43;;;;;;;;;;4935489;28;20323;-67
2022/06/14 08:03:58;;;;;;;6.13;1.90;;;;;;;;;;4950737;28;21332;-66
2022/06/14 08:06:27;;;;;;;5.50;2.00;;;;;;;;;;4930206;28;20241;-70
2022/06/14 08:08:57;;;;;;;7.50;1.53;;;;;;;;;;4957878;28;20240;-66
2022/06/14 08:11:53;;;;;;;4.83;1.70;;;;;;;;;;4954258;28;20245;-66
2022/06/14 08:14:52;;;;;;;5.63;1.10;;;;;;;;;;4940439;28;20224;-65
2022/06/14 08:17:31;;;;;;;4.77;1.33;;;;;;;;;;4942410;28;20548;-67
2022/06/14 08:20:03;;;;;;;3.77;1.10;;;;;;;;;;4950963;28;215322;-65
2022/06/14 08:22:35;;;;;;;4.17;1.40;;;;;;;;;;4945727;28;21226;-67
2022/06/14 08:25:04;;;;;;;4.53;1.13;;;;;;;;;;4932332;28;20583;-65
2022/06/14 08:27:32;;;;;;;4.03;1.13;;;;;;;;;;4954485;28;20260;-66
2022/06/14 08:30:02;;;;;;;5.57;1.50;;;;;;;;;;4953828;28;20241;-65
2022/06/14 08:32:41;;;;;;;5.80;2.00;;;;;;;;;;4949776;28;21524;-66
2022/06/14 08:35:09;;;;;;;4.10;1.20;;;;;;;;;;4958227;28;20228;-66
2022/06/14 08:37:38;;;;;;;4.13;1.63;;;;;;;;;;4937632;28;20243;-69
2022/06/14 08:40:23;;;;;;;4.27;1.20;;;;;;;;;;4949187;28;20677;-68
2022/06/14 08:42:55;;;;;;;6.73;1.20;;;;;;;;;;4949135;28;20644;-69
2022/06/14 08:45:27;;;;;;;5.30;0.97;;;;;;;;;;4945123;28;20228;-66
2022/06/14 08:48:12;;;;;;;3.10;1.03;;;;;;;;;;4935652;28;26696;-67
2022/06/14 08:50:54;;;;;;;4.43;1.20;;;;;;;;;;4950167;28;20232;-72
2022/06/14 08:53:25;;;;;;;3.70;1.50;;;;;;;;;;4926766;28;20287;-68
2022/06/14 08:55:52;;;;;;;4.60;1.20;;;;;;;;;;4951532;28;20236;-65
2022/06/14 08:58:31;;;;;;;5.20;1.23;;;;;;;;;;4929356;28;20260;-67
2022/06/14 09:00:58;;;;;;;3.70;1.07;;;;;;;;;;4956665;28;20304;-67
2022/06/14 09:03:24;;;;;;;3.10;0.77;;;;;;;;;;4929702;28;20244;-66
2022/06/14 09:06:10;;;;;;;3.90;1.13;;;;;;;;;;4935386;28;32981;-68
2022/06/14 09:08:55;;;;;;;3.87;0.97;;;;;;;;;;4954239;28;20232;-67
2022/06/14 09:11:34;;;;;;;5.57;1.23;;;;;;;;;;4951521;28;20234;-67
2022/06/14 09:14:13;;;;;;;5.63;1.43;;;;;;;;;;4915350;28;20289;-68
2022/06/14 09:16:57;;;;;;;4.57;1.67;;;;;;;;;;4940859;28;221479;-70
2022/06/14 09:19:37;;;;;;;8.00;1.57;;;;;;;;;;4949775;28;20978;-68
2022/06/14 09:22:07;;;;;;;3.97;1.47;;;;;;;;;;4934122;28;224792;-66
2022/06/14 09:24:51;;;;;;;5.63;1.60;;;;;;;;;;4929603;28;20777;-68
2022/06/14 09:27:33;;;;;;;5.77;1.57;;;;;;;;;;4946299;28;20885;-68
2022/06/14 09:30:07;;;;;;;5.50;0.90;;;;;;;;;;4926714;28;20228;-70
2022/06/14 09:36:00;;;;;;;5.10;1.03;;;;;;;;;;4929133;28;20231;-66
2022/06/14 09:38:29;;;;;;;2.10;0.80;;;;;;;;;;4962550;28;20267;-68
2022/06/14 09:41:11;;;;;;;2.37;0.80;;;;;;;;;;4958972;28;20926;-69
2022/06/14 09:43:55;;;;;;;3.27;1.00;;;;;;;;;;4898778;28;20791;-68
2022/06/14 09:46:22;;;;;;;2.67;0.70;;;;;;;;;;4928444;28;20228;-69
2022/06/14 09:48:59;;;;;;;2.00;0.90;;;;;;;;;;4949633;28;20244;-68
2022/06/14 09:52:02;;;;;;;2.63;1.00;;;;;;;;;;4940930;28;20233;-67
2022/06/14 09:54:48;;;;;;;3.97;1.23;;;;;;;;;;4951038;28;20326;-67
2022/06/14 09:57:24;;;;;;;2.37;0.80;;;;;;;;;;4952904;28;20235;-69
2022/06/14 09:59:59;;;;;;;2.60;0.70;;;;;;;;;;4917348;28;20232;-68
2022/06/14 10:02:47;;;;;;;3.30;1.00;;;;;;;;;;4943822;28;20291;-67
2022/06/14 10:05:28;;;;;;;9.03;2.17;;;;;;;;;;4940156;28;20247;-71
2022/06/14 10:07:55;;;;;;;2.70;0.70;;;;;;;;;;4939940;28;39108;-68
2022/06/14 10:10:41;;;;;;;4.17;1.17;;;;;;;;;;4956272;28;21036;-67
2022/06/14 10:13:11;;;;;;;5.87;0.70;;;;;;;;;;4936706;28;20743;-66
2022/06/14 10:15:43;;;;;;;4.07;1.10;;;;;;;;;;4951889;28;20298;-67
2022/06/14 10:18:25;;;;;;;5.53;0.77;;;;;;;;;;4913471;28;20309;-69
2022/06/14 10:21:12;;;;;;;3.00;0.80;;;;;;;;;;4944123;28;21230;-68
2022/06/14 10:24:05;;;;;;;2.80;0.90;;;;;;;;;;4968496;28;20234;-67
2022/06/14 10:29:36;;;;;;;2.40;0.80;;;;;;;;;;4940331;28;20275;-69
2022/06/14 10:32:21;;;;;;;4.40;1.00;;;;;;;;;;4948707;28;20228;-70
2022/06/14 10:35:12;;;;;;;2.27;0.80;;;;;;;;;;4952959;28;20327;-67
2022/06/14 10:37:45;;;;;;;2.73;0.80;;;;;;;;;;4920420;28;20235;-68
2022/06/14 10:40:22;;;;;;;4.77;0.83;;;;;;;;;;4954870;28;20638;-68
2022/06/14 10:43:07;;;;;;;4.73;1.00;;;;;;;;;;4948573;28;20232;-70
2022/06/14 10:45:54;;;;;;;6.03;1.37;;;;;;;;;;4946011;28;20236;-69
2022/06/14 10:48:24;;;;;;;3.73;1.10;;;;;;;;;;4942939;28;20233;-67
2022/06/14 10:51:03;;;;;;;3.50;1.00;;;;;;;;;;4958171;28;20584;-74
2022/06/14 10:53:37;;;;;;;0.97;0.60;;;;;;;;;;4942207;28;21990;-69
2022/06/14 10:56:39;;;;;;;4.63;0.73;;;;;;;;;;4960951;28;20233;-66
2022/06/14 10:59:12;;;;;;;3.07;1.00;;;;;;;;;;4947057;28;20231;-66
2022/06/14 11:02:12;;;;;;;2.60;0.90;;;;;;;;;;4955534;28;24254;-69
2022/06/14 11:04:41;;;;;;;4.93;1.00;;;;;;;;;;4948661;28;20247;-68
2022/06/14 11:07:11;;;;;;;2.93;1.20;;;;;;;;;;4935672;28;20245;-67
2022/06/14 11:09:53;;;;;;;3.70;1.13;;;;;;;;;;4930224;28;21051;-68
2022/06/14 11:12:43;;;;;;;3.77;0.90;;;;;;;;;;4949154;28;20286;-67
2022/06/14 11:15:12;;;;;;;2.27;1.00;;;;;;;;;;4918771;28;21712;-69
2022/06/14 11:17:46;;;;;;;2.60;1.20;;;;;;;;;;4950017;28;27714;-68
2022/06/14 11:20:23;;;;;;;2.90;0.90;;;;;;;;;;4942022;28;20229;-67
2022/06/14 11:22:58;;;;;;;3.80;1.13;;;;;;;;;;4940686;28;20223;-67
2022/06/14 11:25:36;;;;;;;4.67;1.10;;;;;;;;;;4939097;28;20247;-67
2022/06/14 11:28:37;;;;;;;3.73;0.93;;;;;;;;;;4917779;28;21001;-67
2022/06/14 11:31:10;;;;;;;6.60;1.00;;;;;;;;;;4945035;28;20224;-68
2022/06/14 11:33:56;;;;;;;2.57;0.80;;;;;;;;;;4959147;28;20228;-67
2022/06/14 11:36:36;;;;;;;4.33;0.90;;;;;;;;;;4928354;28;20748;-67
2022/06/14 11:39:21;;;;;;;3.77;0.90;;;;;;;;;;4968984;28;20236;-68
2022/06/14 11:41:48;;;;;;;4.77;1.53;;;;;;;;;;4956991;28;20294;-67
2022/06/14 11:44:20;;;;;;;5.13;1.60;;;;;;;;;;4956846;28;21063;-65
2022/06/14 11:46:53;;;;;;;2.37;0.97;;;;;;;;;;4953233;28;20236;-68
2022/06/14 11:49:50;;;;;;;4.93;0.97;;;;;;;;;;4952642;28;20235;-68
2022/06/14 11:52:39;;;;;;;4.83;1.10;;;;;;;;;;4935464;28;20232;-66
2022/06/14 11:55:09;;;;;;;2.60;1.00;;;;;;;;;;4925278;28;20232;-65
2022/06/14 11:57:42;;;;;;;2.77;0.93;;;;;;;;;;4958324;28;20239;-66
2022/06/14 12:00:16;;;;;;;1.90;1.00;;;;;;;;;;4940744;28;20225;-66
2022/06/14 12:03:03;;;;;;;4.90;1.27;;;;;;;;;;4936381;28;20236;-66
2022/06/14 12:05:33;;;;;;;5.33;1.00;;;;;;;;;;4946427;28;29023;-65
2022/06/14 12:08:02;;;;;;;2.97;1.00;;;;;;;;;;4939979;28;29868;-66
2022/06/14 12:10:36;;;;;;;2.90;1.00;;;;;;;;;;4940778;28;20613;-66
2022/06/14 12:13:06;;;;;;;7.23;1.13;;;;;;;;;;4782409;28;4633308;-66
2022/06/14 12:15:39;;;;;;;4.80;1.30;;;;;;;;;;4774679;28;4632380;-64
2022/06/14 12:18:07;;;;;;;2.47;1.00;;;;;;;;;;4958589;28;20315;-65
2022/06/14 12:20:37;;;;;;;2.80;1.07;;;;;;;;;;4949957;28;20246;-66
2022/06/14 12:23:08;;;;;;;4.67;1.23;;;;;;;;;;4945436;28;20232;-66
2022/06/14 12:28:57;;;;;;;4.53;1.20;;;;;;;;;;4909672;28;20236;-68
2022/06/14 12:31:27;;;;;;;3.67;1.03;;;;;;;;;;4936704;28;20664;-66
2022/06/14 12:33:58;;;;;;;4.03;1.00;;;;;;;;;;4951026;28;20275;-67
2022/06/14 12:36:35;;;;;;;3.17;0.87;;;;;;;;;;4786766;28;4388660;-65
2022/06/14 12:39:03;;;;;;;4.33;0.97;;;;;;;;;;4962032;28;20279;-67
2022/06/14 12:41:31;;;;;;;4.03;0.93;;;;;;;;;;4926743;28;28844;-66
2022/06/14 12:44:24;;;;;;;5.47;1.13;;;;;;;;;;4959494;28;21905;-68
2022/06/14 12:46:51;;;;;;;4.73;1.37;;;;;;;;;;4933485;28;24964;-65
2022/06/14 12:49:22;;;;;;;2.83;1.10;;;;;;;;;;4917208;28;20247;-65
2022/06/14 12:52:08;;;;;;;2.67;1.00;;;;;;;;;;4940210;28;25665;-67
2022/06/14 12:54:39;;;;;;;6.03;0.87;;;;;;;;;;4940781;28;20234;-66
2022/06/14 12:57:25;;;;;;;4.17;0.90;;;;;;;;;;4951353;28;20225;-66
2022/06/14 13:00:00;;;;;;;3.83;0.80;;;;;;;;;;4935102;28;20787;-65
2022/06/14 13:02:32;;;;;;;2.67;0.80;;;;;;;;;;4887815;28;20240;-66
2022/06/14 13:05:01;;;;;;;3.70;1.00;;;;;;;;;;4929295;28;20858;-67
2022/06/14 13:07:34;;;;;;;3.33;0.80;;;;;;;;;;4927233;28;20840;-69
2022/06/14 13:10:06;;;;;;;3.10;0.93;;;;;;;;;;4956391;28;20738;-67
2022/06/14 13:12:45;;;;;;;1.57;0.90;;;;;;;;;;4951665;28;20688;-68
2022/06/14 13:15:35;;;;;;;2.77;0.80;;;;;;;;;;4945572;28;20235;-67
2022/06/14 13:18:08;;;;;;;2.93;1.07;;;;;;;;;;4966002;28;20236;-67
2022/06/14 13:20:44;;;;;;;4.40;1.10;;;;;;;;;;4927299;28;21661;-66
2022/06/14 13:23:11;;;;;;;4.17;1.00;;;;;;;;;;4939500;28;20755;-67
2022/06/14 13:25:42;;;;;;;4.67;1.10;;;;;;;;;;4953444;28;20688;-71
2022/06/14 13:28:41;;;;;;;4.37;1.30;;;;;;;;;;4949683;28;24045;-66
2022/06/14 13:31:09;;;;;;;3.37;1.30;;;;;;;;;;4933926;28;20225;-67
2022/06/14 13:33:40;;;;;;;3.10;0.93;;;;;;;;;;4998271;28;20230;-67
2022/06/14 13:36:19;;;;;;;8.90;1.37;;;;;;;;;;4998202;28;20227;-67
2022/06/14 13:39:22;;;;;;;3.93;0.87;;;;;;;;;;4997901;28;20223;-66
2022/06/14 13:42:01;;;;;;;3.87;1.10;;;;;;;;;;5004118;28;20238;-67
2022/06/14 13:44:51;;;;;;;4.30;1.07;;;;;;;;;;4966316;28;20216;-67
2022/06/14 13:47:26;;;;;;;2.00;0.93;;;;;;;;;;4948852;28;20577;-68
2022/06/14 13:50:17;;;;;;;3.43;1.00;;;;;;;;;;4965669;28;20231;-67
2022/06/14 13:52:49;;;;;;;2.40;0.83;;;;;;;;;;4954521;28;20576;-68
2022/06/14 13:55:24;;;;;;;1.20;0.70;;;;;;;;;;4954943;28;20221;-67
2022/06/14 13:57:51;;;;;;;5.83;1.10;;;;;;;;;;4936658;28;21062;-69
2022/06/14 14:00:20;;;;;;;4.50;1.27;;;;;;;;;;4962447;28;20629;-67
2022/06/14 14:02:55;;;;;;;4.67;1.00;;;;;;;;;;4961441;28;20233;-68
2022/06/14 14:05:22;;;;;;;4.57;1.07;;;;;;;;;;4956531;28;21144;-67
2022/06/14 14:07:49;;;;;;;5.23;1.03;;;;;;;;;;4955570;28;20228;-68
2022/06/14 14:10:18;;;;;;;3.87;1.03;;;;;;;;;;4937779;28;20240;-68
2022/06/14 14:13:05;;;;;;;1.53;1.00;;;;;;;;;;4937369;28;20288;-68
2022/06/14 14:15:45;;;;;;;8.60;1.30;;;;;;;;;;4933630;28;20244;-68
2022/06/14 14:18:24;;;;;;;4.37;1.10;;;;;;;;;;4920211;28;20233;-68
2022/06/14 14:21:11;;;;;;;3.60;1.10;;;;;;;;;;4899669;28;20615;-69
2022/06/14 14:23:39;;;;;;;2.07;0.90;;;;;;;;;;4934715;28;20228;-69
2022/06/14 14:26:24;;;;;;;4.30;1.33;;;;;;;;;;4944094;28;20288;-70
2022/06/14 14:29:11;;;;;;;5.70;1.10;;;;;;;;;;4940224;28;20229;-68
2022/06/14 14:31:40;;;;;;;3.03;1.10;;;;;;;;;;4925654;28;20252;-68
2022/06/14 14:34:25;;;;;;;2.83;1.20;;;;;;;;;;4931232;28;20271;-68
2022/06/14 14:36:55;;;;;;;3.87;1.23;;;;;;;;;;4941371;28;20241;-68
2022/06/14 14:39:24;;;;;;;6.77;1.37;;;;;;;;;;4940386;28;20312;-68
2022/06/14 14:42:02;;;;;;;4.07;1.17;;;;;;;;;;4942521;28;20269;-68
2022/06/14 14:44:35;;;;;;;3.20;1.40;;;;;;;;;;4940566;28;20244;-68
2022/06/14 14:47:37;;;;;;;4.10;1.30;;;;;;;;;;4984643;28;20255;-68
2022/06/14 14:50:04;;;;;;;3.43;1.10;;;;;;;;;;4885921;29;20642;-69
2022/06/14 14:52:45;;;;;;;4.40;1.13;;;;;;;;;;4965586;28;20223;-68
2022/06/14 14:55:32;;;;;;;3.53;1.23;;;;;;;;;;4931563;28;20233;-68
2022/06/14 14:58:05;;;;;;;4.17;1.37;;;;;;;;;;4942302;28;20280;-67
2022/06/14 15:07:04;;;;;;;1.70;0.87;;;;;;;;;;4981038;28;20215;-68
2022/06/14 15:09:32;;;;;;;4.70;1.50;;;;;;;;;;4964293;28;20282;-68
2022/06/14 15:12:03;;;;;;;5.57;1.27;;;;;;;;;;4978284;28;20247;-68
2022/06/14 15:14:30;;;;;;;4.10;1.20;;;;;;;;;;4996889;28;20653;-68
2022/06/14 15:20:00;;;;;;;3.53;1.20;;;;;;;;;;4944663;28;20233;-67
2022/06/14 15:22:37;;;;;;;5.07;1.20;;;;;;;;;;4955923;28;21767;-67
2022/06/14 15:25:05;;;;;;;3.10;1.30;;;;;;;;;;4941188;28;22370;-68
2022/06/14 15:27:40;;;;;;;4.70;1.27;;;;;;;;;;4956925;28;20232;-70
2022/06/14 15:30:15;;;;;;;4.97;1.50;;;;;;;;;;4956630;28;20311;-66
2022/06/14 15:32:42;;;;;;;4.03;1.30;;;;;;;;;;4959575;28;20241;-68
2022/06/14 15:35:21;;;;;;;3.33;1.20;;;;;;;;;;4947599;28;20228;-68
2022/06/14 15:38:19;;;;;;;3.80;1.03;;;;;;;;;;4957982;28;20242;-68
2022/06/14 15:41:07;;;;;;;4.40;1.40;;;;;;;;;;4955661;28;20699;-68
2022/06/14 15:43:34;;;;;;;10.50;3.23;;;;;;;;;;4950644;28;20618;-67
2022/06/14 15:46:01;;;;;;;3.57;1.33;;;;;;;;;;4963236;28;20232;-67
2022/06/14 15:48:31;;;;;;;4.53;1.30;;;;;;;;;;4960526;28;20228;-66
2022/06/14 15:51:05;;;;;;;5.23;1.60;;;;;;;;;;4954440;28;20600;-66
2022/06/14 15:53:41;;;;;;;4.23;1.30;;;;;;;;;;4952015;28;20231;-66
2022/06/14 15:56:17;;;;;;;2.80;1.27;;;;;;;;;;4949555;28;20235;-59
2022/06/14 15:58:45;;;;;;;2.87;1.30;;;;;;;;;;4959151;28;20227;-61
2022/06/14 16:01:15;;;;;;;2.23;1.30;;;;;;;;;;4975340;28;20231;-70
2022/06/14 16:03:44;;;;;;;3.50;1.37;;;;;;;;;;4999613;28;20648;-65
2022/06/14 16:06:30;;;;;;;2.73;1.33;;;;;;;;;;4961303;28;20699;-65
2022/06/14 16:08:58;;;;;;;3.40;1.10;;;;;;;;;;4935284;28;20816;-65
2022/06/14 16:11:56;;;;;;;4.13;1.30;;;;;;;;;;4937112;28;20308;-65
2022/06/14 16:14:25;;;;;;;2.83;1.47;;;;;;;;;;4982407;28;20666;-66
2022/06/14 16:17:29;;;;;;;1.90;1.10;;;;;;;;;;4999505;28;20277;-70
2022/06/14 16:19:58;;;;;;;6.63;1.50;;;;;;;;;;4963613;28;20243;-66
2022/06/14 16:22:26;;;;;;;5.50;1.50;;;;;;;;;;4950062;28;20233;-66
2022/06/14 16:24:55;;;;;;;6.07;1.70;;;;;;;;;;4950262;28;32185;-65
2022/06/14 16:27:21;;;;;;;4.00;1.43;;;;;;;;;;4959146;28;20235;-65
2022/06/14 16:30:07;;;;;;;4.97;1.30;;;;;;;;;;4956545;28;20762;-65
2022/06/14 16:32:34;;;;;;;3.97;1.50;;;;;;;;;;4954963;28;20239;-66
2022/06/14 16:35:00;;;;;;;4.50;1.20;;;;;;;;;;4949336;28;20236;-66
2022/06/14 16:37:42;;;;;;;4.83;1.40;;;;;;;;;;4950844;28;20233;-66
2022/06/14 16:40:09;;;;;;;6.37;1.50;;;;;;;;;;4956665;28;20310;-66
2022/06/14 16:42:39;;;;;;;4.40;1.33;;;;;;;;;;4955045;28;20581;-69
2022/06/14 16:45:10;;;;;;;5.37;1.60;;;;;;;;;;4949496;28;20232;-65
2022/06/14 16:47:40;;;;;;;13.27;7.60;;;;;;;;;;4960954;28;20240;-65
2022/06/14 16:50:12;;;;;;;9.03;4.20;;;;;;;;;;4948697;28;20236;-66
2022/06/14 16:52:54;;;;;;;12.23;7.93;;;;;;;;;;4955984;28;20752;-66
2022/06/14 16:55:21;;;;;;;5.70;1.60;;;;;;;;;;4929005;28;20242;-66
2022/06/14 16:58:20;;;;;;;3.43;1.30;;;;;;;;;;4961558;28;20228;-66
2022/06/14 17:00:59;;;;;;;5.27;1.53;;;;;;;;;;4885506;28;20236;-66
2022/06/14 17:03:49;;;;;;;6.03;1.60;;;;;;;;;;4942002;28;20228;-67
2022/06/14 17:06:16;;;;;;;7.43;1.70;;;;;;;;;;4955872;28;20233;-66
2022/06/14 17:08:58;;;;;;;7.07;1.70;;;;;;;;;;4956732;28;20692;-65
2022/06/14 17:11:31;;;;;;;4.93;1.60;;;;;;;;;;4945446;28;20225;-65
2022/06/14 17:14:14;;;;;;;4.40;2.13;;;;;;;;;;4959529;28;20217;-65
2022/06/14 17:16:57;;;;;;;4.90;1.97;;;;;;;;;;4949038;28;20239;-61
2022/06/14 17:19:27;;;;;;;4.77;2.27;;;;;;;;;;4949445;28;20220;-65
2022/06/14 17:21:57;;;;;;;3.83;1.87;;;;;;;;;;4955602;28;20782;-66
2022/06/14 17:24:27;;;;;;;7.03;2.40;;;;;;;;;;4954917;28;20674;-66
2022/06/14 17:32:45;;;;;;;7.13;3.67;;;;;;;;;;4949380;28;20312;-65
2022/06/14 17:35:14;;;;;;;28.13;11.00;;;;;;;;;;4952374;28;20629;-64
2022/06/14 17:38:07;;;;;;;17.73;7.43;;;;;;;;;;4946267;28;20281;-65
2022/06/14 17:40:36;;;;;;;9.33;3.20;;;;;;;;;;4956815;28;20583;-67
2022/06/14 17:43:15;;;;;;;13.50;5.47;;;;;;;;;;4942961;28;20328;-66
2022/06/14 17:45:46;;;;;;;8.97;3.23;;;;;;;;;;4946917;28;20239;-65
2022/06/14 17:48:47;;;;;;;5.93;2.00;;;;;;;;;;4944937;28;20256;-67
2022/06/14 17:51:14;;;;;;;13.23;5.20;;;;;;;;;;4899752;28;20291;-66
2022/06/14 17:54:13;;;;;;;8.73;4.47;;;;;;;;;;4928059;28;32756;-66
2022/06/14 17:56:59;;;;;;;9.10;2.60;;;;;;;;;;4928474;28;20465;-67
2022/06/14 17:59:29;;;;;;;5.43;2.20;;;;;;;;;;4960029;28;20224;-68
2022/06/14 18:01:58;;;;;;;5.80;2.73;;;;;;;;;;4951937;28;20754;-66
2022/06/14 18:04:44;;;;;;;8.50;3.10;;;;;;;;;;4934841;28;20582;-67
2022/06/14 18:07:11;;;;;;;10.10;3.40;;;;;;;;;;4951811;28;20241;-67
2022/06/14 18:09:45;;;;;;;8.40;2.70;;;;;;;;;;4956679;28;20248;-66
2022/06/14 18:12:13;;;;;;;7.67;2.97;;;;;;;;;;4940382;28;20232;-67
2022/06/14 18:14:43;;;;;;;8.17;2.30;;;;;;;;;;4954883;28;20225;-66
2022/06/14 18:17:18;;;;;;;7.13;2.20;;;;;;;;;;4950500;28;20290;-66
2022/06/14 18:22:30;;;;;;;5.57;2.27;;;;;;;;;;4935525;28;20240;-68
2022/06/14 18:24:58;;;;;;;9.27;2.70;;;;;;;;;;4951236;28;20324;-68
2022/06/14 18:27:27;;;;;;;8.30;2.93;;;;;;;;;;4948848;28;221289;-67
2022/06/14 18:30:07;;;;;;;7.57;2.83;;;;;;;;;;4949925;28;20275;-67
2022/06/14 18:32:58;;;;;;;7.50;2.30;;;;;;;;;;4946921;28;20220;-68
2022/06/14 18:35:25;;;;;;;7.93;2.40;;;;;;;;;;4929056;28;20717;-67
2022/06/14 18:38:28;;;;;;;8.43;2.13;;;;;;;;;;4960819;28;22674;-68
2022/06/14 18:40:54;;;;;;;4.97;1.93;;;;;;;;;;4958812;28;20343;-70
2022/06/14 18:43:57;;;;;;;6.97;2.20;;;;;;;;;;4925926;28;20225;-68
2022/06/14 18:46:31;;;;;;;6.60;2.20;;;;;;;;;;4950838;28;20244;-66
2022/06/14 18:48:58;;;;;;;5.93;1.90;;;;;;;;;;4932638;28;20624;-67
2022/06/14 18:51:25;;;;;;;6.23;2.20;;;;;;;;;;4924351;28;20260;-67
2022/06/14 18:53:57;;;;;;;7.93;2.30;;;;;;;;;;4944137;28;20319;-67
2022/06/14 18:56:31;;;;;;;5.80;2.40;;;;;;;;;;4915815;28;24118;-67
2022/06/14 18:59:01;;;;;;;5.30;2.20;;;;;;;;;;4951370;28;20235;-68
2022/06/14 19:01:30;;;;;;;7.07;2.23;;;;;;;;;;4936744;28;21733;-68
2022/06/14 19:04:09;;;;;;;4.03;1.93;;;;;;;;;;4961319;28;20893;-67
2022/06/14 19:07:06;;;;;;;7.63;2.47;;;;;;;;;;4960205;28;20232;-67
2022/06/14 19:09:45;;;;;;;5.13;2.40;;;;;;;;;;4890061;28;20362;-67
2022/06/14 19:12:16;;;;;;;5.90;2.07;;;;;;;;;;4961302;28;20315;-68
2022/06/14 19:14:44;;;;;;;5.67;2.13;;;;;;;;;;4938657;28;20228;-67
2022/06/14 19:17:10;;;;;;;5.67;2.30;;;;;;;;;;4960849;28;20236;-67
2022/06/14 19:20:01;;;;;;;8.73;2.60;;;;;;;;;;4970213;28;20216;-67
2022/06/14 19:22:28;;;;;;;5.20;1.90;;;;;;;;;;4958491;28;20232;-67
2022/06/14 19:25:18;;;;;;;5.17;2.13;;;;;;;;;;4952292;28;33127;-68
2022/06/14 19:27:45;;;;;;;7.87;2.10;;;;;;;;;;4962201;28;23978;-68
2022/06/14 19:30:31;;;;;;;12.60;2.83;;;;;;;;;;4955677;28;20263;-67
2022/06/14 19:33:02;;;;;;;7.17;2.40;;;;;;;;;;4948030;28;20312;-68
2022/06/14 19:35:50;;;;;;;8.50;2.73;;;;;;;;;;4952011;28;20225;-67
2022/06/14 19:38:21;;;;;;;10.07;3.03;;;;;;;;;;4961022;28;25093;-67
2022/06/14 19:40:49;;;;;;;6.97;2.47;;;;;;;;;;4946672;28;20247;-69
2022/06/14 19:43:16;;;;;;;8.63;2.57;;;;;;;;;;4961203;28;20700;-68
2022/06/14 19:45:47;;;;;;;5.60;2.10;;;;;;;;;;4961530;28;20696;-68
2022/06/14 19:48:15;;;;;;;4.77;2.23;;;;;;;;;;4962210;28;21030;-67
2022/06/14 19:50:49;;;;;;;7.10;2.30;;;;;;;;;;4960814;28;20232;-67
2022/06/14 19:53:33;;;;;;;7.77;2.30;;;;;;;;;;4959777;28;20232;-68
2022/06/14 19:56:00;;;;;;;7.03;2.53;;;;;;;;;;4955925;28;20973;-68
2022/06/14 19:58:31;;;;;;;5.13;2.10;;;;;;;;;;4928740;28;20236;-68
2022/06/14 20:00:58;;;;;;;4.83;2.07;;;;;;;;;;4953520;28;20239;-68
2022/06/14 20:03:25;;;;;;;7.93;2.33;;;;;;;;;;4969602;28;20229;-67
2022/06/14 20:06:19;;;;;;;7.03;2.37;;;;;;;;;;4953732;28;20647;-67
2022/06/14 20:08:48;;;;;;;8.00;1.97;;;;;;;;;;4950074;28;20237;-71
2022/06/14 20:11:34;;;;;;;5.63;2.20;;;;;;;;;;4949436;28;21072;-67
2022/06/14 20:14:29;;;;;;;6.10;2.10;;;;;;;;;;4935396;28;20697;-68
2022/06/14 20:17:17;;;;;;;5.73;2.23;;;;;;;;;;4952489;28;20221;-69
2022/06/14 20:19:54;;;;;;;6.83;2.10;;;;;;;;;;4959611;28;20237;-68
2022/06/14 20:22:21;;;;;;;7.80;2.00;;;;;;;;;;4949848;28;20718;-68
2022/06/14 20:24:51;;;;;;;4.43;2.40;;;;;;;;;;4946310;28;20308;-68
2022/06/14 20:27:21;;;;;;;6.93;2.17;;;;;;;;;;4921869;28;20225;-67
2022/06/14 20:30:07;;;;;;;5.03;2.03;;;;;;;;;;4947762;28;20232;-68
2022/06/14 20:32:42;;;;;;;6.33;2.00;;;;;;;;;;4971597;28;20334;-68
2022/06/14 20:35:11;;;;;;;9.47;2.77;;;;;;;;;;4985095;28;20280;-68
2022/06/14 20:37:47;;;;;;;7.00;2.60;;;;;;;;;;4963752;28;20236;-72
2022/06/14 20:40:32;;;;;;;9.50;2.43;;;;;;;;;;4958922;28;20243;-68
2022/06/14 20:43:01;;;;;;;9.00;2.47;;;;;;;;;;4960739;28;20240;-67
2022/06/14 20:45:29;;;;;;;7.70;2.50;;;;;;;;;;4958341;28;20311;-67
2022/06/14 20:47:56;;;;;;;7.23;2.43;;;;;;;;;;4938404;28;20237;-68
2022/06/14 20:50:28;;;;;;;5.57;2.33;;;;;;;;;;4949822;28;20385;-67
2022/06/14 20:53:12;;;;;;;8.37;2.10;;;;;;;;;;4932115;28;20216;-67
2022/06/14 20:55:51;;;;;;;7.90;2.37;;;;;;;;;;4951501;28;20311;-67
2022/06/14 20:58:35;;;;;;;6.37;2.20;;;;;;;;;;4957843;28;20224;-66
2022/06/14 21:01:02;;;;;;;5.63;2.27;;;;;;;;;;4953077;28;20296;-66
2022/06/14 21:03:29;;;;;;;7.20;2.50;;;;;;;;;;4943522;28;20284;-67
2022/06/14 21:05:56;;;;;;;5.53;2.13;;;;;;;;;;4954512;28;20283;-66
2022/06/14 21:08:24;;;;;;;7.73;2.40;;;;;;;;;;4940549;28;20688;-67
2022/06/14 21:13:52;;;;;;;8.10;2.40;;;;;;;;;;4961932;28;20236;-66
2022/06/14 21:16:20;;;;;;;5.50;2.30;;;;;;;;;;4961387;28;20672;-66
2022/06/14 21:18:48;;;;;;;6.97;2.20;;;;;;;;;;4941732;28;20237;-66
2022/06/14 21:21:22;;;;;;;7.00;2.50;;;;;;;;;;4940178;28;20256;-66
2022/06/14 21:23:49;;;;;;;6.93;2.77;;;;;;;;;;4959800;28;20631;-66
2022/06/14 21:26:16;;;;;;;6.23;2.53;;;;;;;;;;4941933;28;20235;-66
2022/06/14 21:28:43;;;;;;;5.43;2.03;;;;;;;;;;4953589;28;20237;-67
2022/06/14 21:31:14;;;;;;;9.50;2.73;;;;;;;;;;4957737;28;20228;-66
2022/06/14 21:34:00;;;;;;;7.03;2.60;;;;;;;;;;4938624;28;20621;-66
2022/06/14 21:36:45;;;;;;;7.37;2.37;;;;;;;;;;4962052;28;20223;-66
2022/06/14 21:39:26;;;;;;;8.43;2.50;;;;;;;;;;4938888;28;20588;-66
2022/06/14 21:41:54;;;;;;;10.23;2.43;;;;;;;;;;4962456;28;20227;-66
2022/06/14 21:44:22;;;;;;;10.50;3.40;;;;;;;;;;4947041;28;20235;-66
2022/06/14 21:46:49;;;;;;;9.57;2.60;;;;;;;;;;4960803;28;20236;-66
2022/06/14 21:49:16;;;;;;;6.77;2.53;;;;;;;;;;4942200;28;20259;-66
2022/06/14 21:51:50;;;;;;;8.87;2.63;;;;;;;;;;4958587;28;20272;-66
2022/06/14 21:54:20;;;;;;;7.03;2.80;;;;;;;;;;4960020;28;20232;-67
2022/06/14 21:56:46;;;;;;;10.50;3.27;;;;;;;;;;4943796;28;21337;-66
2022/06/14 21:59:21;;;;;;;8.63;2.70;;;;;;;;;;4944037;28;20236;-67
2022/06/14 22:01:51;;;;;;;9.87;3.17;;;;;;;;;;4926968;28;20263;-67
2022/06/14 22:04:21;;;;;;;8.77;2.73;;;;;;;;;;4963271;28;20248;-72
2022/06/14 22:06:48;;;;;;;8.97;3.17;;;;;;;;;;4965647;28;20240;-67
2022/06/14 22:09:15;;;;;;;9.30;2.87;;;;;;;;;;4964468;28;20228;-66
2022/06/14 22:11:42;;;;;;;10.33;3.00;;;;;;;;;;4966851;28;20240;-66
2022/06/14 22:14:33;;;;;;;8.17;2.80;;;;;;;;;;4941432;28;20229;-66
2022/06/14 22:17:00;;;;;;;9.67;3.10;;;;;;;;;;4961211;28;20291;-66
2022/06/14 22:19:44;;;;;;;9.23;3.10;;;;;;;;;;4958045;28;20589;-66